createdAt,value
2018-05-21T00:04:01.040Z,100346
2018-05-21T00:09:02.503Z,100343
2018-05-21T00:14:03.992Z,100343
2018-05-21T00:19:05.617Z,100338
2018-05-21T00:24:07.120Z,100332
2018-05-21T00:29:08.662Z,100342
2018-05-21T00:34:10.156Z,100323
2018-05-21T00:39:11.670Z,100319
2018-05-21T00:44:13.201Z,100309
2018-05-21T00:49:15.525Z,100312
2018-05-21T00:54:16.969Z,100319
2018-05-21T00:59:19.385Z,100312
2018-05-21T01:04:20.997Z,100307
2018-05-21T01:09:22.530Z,100301
2018-05-21T01:14:24.039Z,100305
2018-05-21T01:19:25.582Z,100315
2018-05-21T01:24:27.105Z,100310
2018-05-21T01:29:28.607Z,100314
2018-05-21T01:34:30.117Z,100315
2018-05-21T01:39:32.367Z,100313
2018-05-21T01:44:33.881Z,100303
2018-05-21T01:49:36.192Z,100306
2018-05-21T01:54:37.745Z,100302
2018-05-21T01:59:39.208Z,100303
2018-05-21T02:04:41.481Z,100302
2018-05-21T02:09:43.876Z,100296
2018-05-21T02:14:46.135Z,100289
2018-05-21T02:19:47.735Z,100286
2018-05-21T02:24:49.329Z,100279
2018-05-21T02:29:50.822Z,100273
2018-05-21T02:34:52.324Z,100278
2018-05-21T02:39:54.603Z,100276
2018-05-21T02:44:56.866Z,100272
2018-05-21T02:49:58.394Z,100268
2018-05-21T02:55:00.111Z,100259
2018-05-21T03:00:01.732Z,100263
2018-05-21T03:05:03.239Z,100257
2018-05-21T03:10:04.928Z,100259
2018-05-21T03:15:06.492Z,100257
2018-05-21T03:20:07.983Z,100255
2018-05-21T03:25:10.175Z,100253
2018-05-21T03:30:11.861Z,100251
2018-05-21T03:35:13.357Z,100257
2018-05-21T03:40:14.879Z,100258
2018-05-21T03:45:16.387Z,100247
2018-05-21T03:50:17.830Z,100266
2018-05-21T03:55:19.341Z,100255
2018-05-21T04:00:39.472Z,100264
2018-05-21T04:05:41.701Z,100270
2018-05-21T04:10:43.173Z,100265
2018-05-21T04:15:44.659Z,100265
2018-05-21T04:20:46.145Z,100273
2018-05-21T04:25:47.662Z,100274
2018-05-21T04:30:49.238Z,100269
2018-05-21T04:35:50.718Z,100263
2018-05-21T04:40:52.296Z,100258
2018-05-21T04:45:55.307Z,100254
2018-05-21T04:50:57.289Z,100253
2018-05-21T04:55:59.799Z,100250
2018-05-21T05:01:02.204Z,100247
2018-05-21T05:06:03.826Z,100256
2018-05-21T05:11:05.928Z,100249
2018-05-21T05:16:07.789Z,100240
2018-05-21T05:21:12.485Z,100246
2018-05-21T05:26:14.395Z,100241
2018-05-21T05:31:15.994Z,100226
2018-05-21T05:36:18.062Z,100237
2018-05-21T05:41:20.830Z,100228
2018-05-21T05:51:59.108Z,100243
2018-05-21T05:57:01.463Z,100220
2018-05-21T06:02:04.092Z,100227
2018-05-21T06:07:06.451Z,100224
2018-05-21T06:12:08.825Z,100225
2018-05-21T06:17:10.759Z,100227
2018-05-21T06:27:47.675Z,100216
2018-05-21T06:32:49.937Z,100225
2018-05-21T06:37:52.072Z,100218
2018-05-21T06:42:54.082Z,100223
2018-05-21T06:47:56.132Z,100211
2018-05-21T06:52:57.988Z,100219
2018-05-21T06:58:00.197Z,100231
2018-05-21T07:03:01.833Z,100234
2018-05-21T07:08:03.884Z,100231
2018-05-21T07:13:06.647Z,100235
2018-05-21T07:18:08.787Z,100232
2018-05-21T07:23:11.312Z,100226
2018-05-21T07:28:13.696Z,100220
2018-05-21T07:33:15.288Z,100214
2018-05-21T07:38:17.603Z,100221
2018-05-21T07:43:19.504Z,100209
2018-05-21T07:48:21.182Z,100208
2018-05-21T07:53:23.981Z,100200
2018-05-21T07:58:26.864Z,100200
2018-05-21T08:03:28.802Z,100198
2018-05-21T08:08:31.360Z,100185
2018-05-21T08:13:32.925Z,100186
2018-05-21T08:18:35.612Z,100180
2018-05-21T08:23:38.711Z,100173
2018-05-21T08:28:41.628Z,100167
2018-05-21T08:33:43.801Z,100167
2018-05-21T08:44:30.655Z,100167
2018-05-21T08:49:32.342Z,100170
2018-05-21T08:54:33.929Z,100160
2018-05-21T08:59:35.497Z,100163
2018-05-21T09:04:37.078Z,100170
2018-05-21T09:09:38.646Z,100160
2018-05-21T09:14:40.234Z,100147
2018-05-21T09:19:41.792Z,100143
2018-05-21T09:24:44.087Z,100126
2018-05-21T09:29:46.400Z,100124
2018-05-21T09:34:48.005Z,100130
2018-05-21T09:39:49.659Z,100125
2018-05-21T09:44:58.348Z,100124
2018-05-21T09:50:00.576Z,100126
2018-05-21T09:55:02.192Z,100122
2018-05-21T10:00:03.713Z,100107
2018-05-21T10:05:05.225Z,100113
2018-05-21T10:10:07.509Z,100100
2018-05-21T10:15:09.041Z,100118
2018-05-21T10:20:10.565Z,100094
2018-05-21T10:25:12.843Z,100085
2018-05-21T10:30:15.121Z,100083
2018-05-21T10:35:17.407Z,100099
2018-05-21T10:40:19.706Z,100070
2018-05-21T10:45:22.002Z,100065
2018-05-21T10:50:23.539Z,100063
2018-05-21T10:55:25.900Z,100057
2018-05-21T11:00:27.494Z,100050
2018-05-21T11:05:29.011Z,100052
2018-05-21T11:10:30.583Z,100045
2018-05-21T11:15:32.217Z,100044
2018-05-21T11:20:35.189Z,100031
2018-05-21T11:25:36.758Z,100039
2018-05-21T11:30:38.511Z,100027
2018-05-21T11:35:40.133Z,100024
2018-05-21T11:40:42.393Z,100019
2018-05-21T11:45:44.047Z,100027
2018-05-21T11:50:45.640Z,100010
2018-05-21T11:55:47.270Z,100018
2018-05-21T12:00:48.823Z,100000
2018-05-21T12:05:50.380Z,100004
2018-05-21T12:10:51.929Z,100005
2018-05-21T12:15:54.239Z,100000
2018-05-21T12:20:55.775Z,99993
2018-05-21T12:25:57.412Z,99995
2018-05-21T12:30:58.972Z,99998
2018-05-21T12:36:00.515Z,99987
2018-05-21T12:41:02.000Z,99990
2018-05-21T12:46:03.542Z,99986
2018-05-21T12:51:05.059Z,99978
2018-05-21T12:56:06.700Z,99985
2018-05-21T13:01:08.241Z,99994
2018-05-21T13:06:09.805Z,99994
2018-05-21T13:11:11.345Z,99987
2018-05-21T13:16:12.888Z,99987
2018-05-21T13:21:14.442Z,99976
2018-05-21T13:26:15.968Z,99967
2018-05-21T13:31:18.251Z,99962
2018-05-21T13:36:20.495Z,99960
2018-05-21T13:41:22.052Z,99961
2018-05-21T13:46:23.564Z,99947
2018-05-21T13:51:25.844Z,99965
2018-05-21T13:56:27.388Z,99959
2018-05-21T14:01:28.908Z,99953
2018-05-21T14:06:30.415Z,99942
2018-05-21T14:11:31.979Z,99945
2018-05-21T14:16:33.593Z,99934
2018-05-21T14:21:35.975Z,99932
2018-05-21T14:26:37.589Z,99923
2018-05-21T14:31:39.114Z,99924
2018-05-21T14:36:41.368Z,99921
2018-05-21T14:41:42.947Z,99910
2018-05-21T14:46:44.505Z,99912
2018-05-21T14:51:46.260Z,99906
2018-05-21T14:56:47.839Z,99898
2018-05-21T15:01:49.383Z,99898
2018-05-21T15:06:51.142Z,99888
2018-05-21T15:11:52.712Z,99891
2018-05-21T15:16:54.625Z,99880
2018-05-21T15:21:56.179Z,99884
2018-05-21T15:26:57.734Z,99871
2018-05-21T15:31:59.251Z,99874
2018-05-21T15:37:00.771Z,99864
2018-05-21T15:42:02.349Z,99872
2018-05-21T15:47:03.919Z,99858
2018-05-21T15:52:05.487Z,99849
2018-05-21T15:57:07.076Z,99846
2018-05-21T16:02:08.683Z,99850
2018-05-21T16:07:10.986Z,99854
2018-05-21T16:12:13.265Z,99847
2018-05-21T16:17:15.526Z,99842
2018-05-21T16:22:17.059Z,99830
2018-05-21T16:27:18.618Z,99826
2018-05-21T16:32:20.319Z,99832
2018-05-21T16:37:21.889Z,99824
2018-05-21T16:42:23.416Z,99826
2018-05-21T16:47:25.005Z,99813
2018-05-21T16:52:26.697Z,99811
2018-05-21T16:57:28.376Z,99809
2018-05-21T17:02:29.931Z,99806
2018-05-21T17:07:31.506Z,99818
2018-05-21T17:12:33.063Z,99807
2018-05-21T17:17:34.603Z,99805
2018-05-21T17:22:36.127Z,99808
2018-05-21T17:27:37.654Z,99803
2018-05-21T17:32:39.239Z,99797
2018-05-21T17:37:40.806Z,99806
2018-05-21T17:42:42.339Z,99804
2018-05-21T17:47:43.921Z,99817
2018-05-21T17:52:45.442Z,99810
2018-05-21T17:57:47.007Z,99810
2018-05-21T18:02:48.639Z,99813
2018-05-21T18:07:50.239Z,99811
2018-05-21T18:12:51.834Z,99817
2018-05-21T18:17:54.162Z,99817
2018-05-21T18:22:55.991Z,99821
2018-05-21T18:27:58.332Z,99809
2018-05-21T18:32:59.876Z,99798
2018-05-21T18:38:02.350Z,99804
2018-05-21T18:43:04.036Z,99799
2018-05-21T18:48:05.605Z,99790
2018-05-21T18:53:07.182Z,99788
2018-05-21T18:58:08.741Z,99777
2018-05-21T19:03:10.293Z,99789
2018-05-21T19:08:11.826Z,99785
2018-05-21T19:13:13.427Z,99784
2018-05-21T19:18:15.705Z,99781
2018-05-21T19:23:18.014Z,99782
2018-05-21T19:28:19.550Z,99786
2018-05-21T19:33:21.220Z,99786
2018-05-21T19:38:22.756Z,99794
2018-05-21T19:43:24.651Z,99793
2018-05-21T19:48:26.305Z,99802
2018-05-21T19:53:28.071Z,99793
2018-05-21T19:58:29.694Z,99809
2018-05-21T20:03:32.164Z,99802
2018-05-21T20:08:33.731Z,99807
2018-05-21T20:13:35.396Z,99807
2018-05-21T20:18:37.611Z,99812
2018-05-21T20:23:39.896Z,99796
2018-05-21T20:28:42.173Z,99799
2018-05-21T20:33:44.575Z,99805
2018-05-21T20:38:46.377Z,99801
2018-05-21T20:43:47.923Z,99797
2018-05-21T20:48:49.504Z,99798
2018-05-21T20:53:51.141Z,99790
2018-05-21T20:58:53.448Z,99796
2018-05-21T21:03:55.252Z,99799
2018-05-21T21:08:56.977Z,99801
2018-05-21T21:13:59.371Z,99802
2018-05-21T21:19:01.630Z,99805
2018-05-21T21:24:03.372Z,99792
2018-05-21T21:29:05.099Z,99795
2018-05-21T21:34:07.373Z,99805
2018-05-21T21:39:09.684Z,99794
2018-05-21T21:44:11.416Z,99790
2018-05-21T21:49:12.924Z,99789
2018-05-21T21:54:14.445Z,99790
2018-05-21T21:59:16.056Z,99788
2018-05-21T22:04:17.635Z,99791
2018-05-21T22:09:19.261Z,99794
2018-05-21T22:14:20.819Z,99793
2018-05-21T22:19:22.350Z,99781
2018-05-21T22:24:23.891Z,99784
2018-05-21T22:29:26.187Z,99781
2018-05-21T22:34:27.694Z,99773
2018-05-21T22:39:29.282Z,99777
2018-05-21T22:44:30.887Z,99772
2018-05-21T22:49:33.163Z,99772
2018-05-21T22:54:35.412Z,99774
2018-05-21T22:59:37.007Z,99770
2018-05-21T23:04:39.399Z,99763
2018-05-21T23:09:41.819Z,99760
2018-05-21T23:14:43.359Z,99763
2018-05-21T23:19:45.600Z,99752
2018-05-21T23:24:47.182Z,99757
2018-05-21T23:29:48.705Z,99758
2018-05-21T23:34:50.254Z,99742
2018-05-21T23:39:52.544Z,99752
2018-05-21T23:44:54.071Z,99745
2018-05-21T23:49:55.640Z,99757
2018-05-21T23:54:57.265Z,99760
2018-05-21T23:59:59.055Z,99750
